Flight Track Log - Related Links

Times and Time Zones

All times are in EDT time to prevent confusion due to time zone crossing. See the SQH21 flight status page for this flight to view local times or setup timezone preferences in your user account.

Time Position Orientation Groundspeed Altitude Reporting Facility
EDT Latitude Longitude Course Direction KTS MPH feet Rate Location/Type
Wed 05:26:15 PM 45.6946 -118.8622 262° West  Level FlightAware Approximate
Wed 05:27:15 PM 45.6833 -118.9434 265° West  Level FlightAware Approximate
Wed 05:28:15 PM 45.6675 -119.0220 310° West  Level FlightAware Approximate
Wed 05:29:29 PM 45.6775 -119.0392 254° West 141 162 7,000  Level Seattle Center
Wed 05:30:31 PM 45.6658 -119.0972 270° West 147 169 8,600 1,659 Climbing Seattle Center
Wed 05:31:32 PM 45.6658 -119.1597 267° West 150 173 10,400 1,525 Climbing Seattle Center
Wed 05:32:33 PM 45.6633 -119.2183 266° West 150 173 11,700 1,426 Climbing Seattle Center
Wed 05:33:34 PM 45.6608 -119.2753 266° West 148 170 13,300 1,377 Climbing Seattle Center
Wed 05:34:35 PM 45.6581 -119.3303 267° West 143 165 14,500 1,180 Climbing Seattle Center
Wed 05:35:36 PM 45.6556 -119.3911 266° West 147 169 15,700 1,279 Climbing Seattle Center
Wed 05:36:37 PM 45.6519 -119.4681 268° West 155 178 17,100 1,426 Climbing Seattle Center
Wed 05:37:38 PM 45.6500 -119.5317 265° West 160 184 18,600 1,131 Climbing Seattle Center
Wed 05:38:39 PM 45.6461 -119.5931 266° West 159 183 19,400 689 Climbing Seattle Center
Wed 05:39:40 PM 45.6428 -119.6575 266° West 161 185 20,000 295 Climbing Seattle Center
Wed 05:40:41 PM 45.6389 -119.7328 267° West 179 206 20,000  Level Seattle Center
Wed 05:41:43 PM 45.6353 -119.8172 266° West 205 236 20,000  Level Seattle Center
Wed 05:42:44 PM 45.6308 -119.9031 266° West 215 247 20,000  Level Seattle Center
Wed 05:43:45 PM 45.6258 -120.0069 267° West 220 253 20,000  Level Seattle Center
Wed 05:44:46 PM 45.6222 -120.0958 266° West 223 257 20,000  Level Seattle Center
Wed 05:45:47 PM 45.6178 -120.1872 264° West 228 262 20,000  Level Seattle Center
Wed 05:46:48 PM 45.6114 -120.2739 266° West 226 260 20,000  Level Seattle Center
Wed 05:47:49 PM 45.6072 -120.3622 266° West 225 259 20,000  Level Seattle Center
Wed 05:48:50 PM 45.6025 -120.4497 265° West 224 258 20,000  Level Seattle Center
Wed 05:49:51 PM 45.5975 -120.5356 266° West 221 254 20,000  Level Seattle Center
Wed 05:50:53 PM 45.5931 -120.6192 265° West 216 249 20,000  Level Seattle Center
Wed 05:51:54 PM 45.5869 -120.7175 265° West 211 243 20,000  Level Seattle Center
Wed 05:52:55 PM 45.5819 -120.8014 266° West 212 244 20,000  Level Seattle Center
Wed 05:53:56 PM 45.5772 -120.8892 265° West 220 253 20,000 -98 Level Seattle Center
Wed 05:54:57 PM 45.5717 -120.9731 265° West 217 250 19,800 -590 Descending Seattle Center
Wed 05:55:58 PM 45.5667 -121.0608 266° West 222 255 18,800 -1,180 Descending Seattle Center
Wed 05:56:59 PM 45.5617 -121.1519 264° West 229 264 17,400 -1,171 Descending Seattle Center
Wed 05:58:01 PM 45.5556 -121.2403 265° West 227 261 16,400 -1,024 Descending Seattle Center
Wed 05:59:02 PM 45.5508 -121.3233 265° West 218 251 15,300 -1,131 Descending Seattle Center
Wed 06:00:03 PM 45.5447 -121.4167 267° West 203 234 14,100 -684 Descending Seattle Center
Wed 06:00:56 PM 45.5422 -121.4908 264° West 207 238 14,000 -53 Descending Seattle Center
Wed 06:01:56 PM 45.5369 -121.5661 264° West 195 224 14,000  Level Seattle Center
Wed 06:02:57 PM 45.5303 -121.6544 264° West 205 236 14,000 -393 Level Seattle Center
Wed 06:03:58 PM 45.5239 -121.7428 265° West 229 264 13,200 -955 Descending Seattle Center
Wed 06:05:09 PM 45.5178 -121.8344 267° West 231 266 11,900 -1,289 Descending Seattle Center
Wed 06:05:59 PM 45.5144 -121.9172 278° West 214 246 10,600 -1,027 Descending Seattle Center
Wed 06:07:00 PM 45.5233 -122.0069 282° West 226 260 10,000 -298 Descending Seattle Center
Wed 06:08:00 PM 45.5364 -122.0947 278° West 227 261 10,000  Level Seattle Center
Wed 06:09:01 PM 45.5453 -122.1847 295° West 227 261 10,000  Level Seattle Center
Wed 06:10:01 PM 45.5739 -122.2739 293° West 236 272 10,000  Level Seattle Center
Wed 06:11:02 PM 45.5989 -122.3589 295° West 238 274 10,000 -344 Level Seattle Center
Wed 06:12:03 PM 45.6267 -122.4456 293° West 236 272 9,300 -1,091 Descending Seattle Center
Wed 06:13:03 PM 45.6506 -122.5250 298° West 217 250 7,800 -1,438 Descending Seattle Center
Wed 06:14:04 PM 45.6753 -122.5914 294° West 190 219 6,400 -1,488 Descending Seattle Center
Wed 06:15:04 PM 45.6969 -122.6625 289° West 182 209 4,800 -1,537 Descending Seattle Center
Wed 06:16:05 PM 45.7125 -122.7272 188° South 178 205 3,300 -1,031 Descending Seattle Center
Wed 06:17:12 PM 45.6703 -122.7353 147° Southeast 161 185 2,600 -756 Descending Seattle Center
Wed 06:18:12 PM 45.6392 -122.7064 120° Southeast 133 153 1,700 -645 Descending Seattle Center
Wed 06:19:13 PM 45.6231 -122.6672 123° Southeast 113 130 1,300 -443 Descending Seattle Center
Wed 06:20:14 PM 45.6092 -122.6364 123° Southeast 94 108 800 -492 Descending Seattle Center

Login

Don't have an account? Register now (free) for customized features, flight alerts, and more!